sensor_id;sensor_type;location;lat;lon;timestamp;temperature;humidity
19610;DHT22;9952;47.122;-1.638;2022-12-18T00:02:46;-1.90;99.90
19610;DHT22;9952;47.122;-1.638;2022-12-18T00:07:27;-2.00;99.90
19610;DHT22;9952;47.122;-1.638;2022-12-18T00:12:07;-2.00;99.90
19610;DHT22;9952;47.122;-1.638;2022-12-18T00:16:48;-2.00;99.90
19610;DHT22;9952;47.122;-1.638;2022-12-18T00:21:30;-2.10;99.90
19610;DHT22;9952;47.122;-1.638;2022-12-18T00:26:14;-2.00;99.90
19610;DHT22;9952;47.122;-1.638;2022-12-18T00:31:05;-1.90;99.90
19610;DHT22;9952;47.122;-1.638;2022-12-18T00:35:46;-2.00;99.90
19610;DHT22;9952;47.122;-1.638;2022-12-18T00:40:27;-2.00;99.90
19610;DHT22;9952;47.122;-1.638;2022-12-18T00:45:08;-2.00;99.90
19610;DHT22;9952;47.122;-1.638;2022-12-18T00:49:48;-2.00;99.90
19610;DHT22;9952;47.122;-1.638;2022-12-18T00:54:29;-2.00;99.90
19610;DHT22;9952;47.122;-1.638;2022-12-18T00:59:10;-1.90;99.90
19610;DHT22;9952;47.122;-1.638;2022-12-18T01:03:51;-1.90;99.90
19610;DHT22;9952;47.122;-1.638;2022-12-18T01:08:32;-1.80;99.90
19610;DHT22;9952;47.122;-1.638;2022-12-18T01:13:12;-1.70;99.90
19610;DHT22;9952;47.122;-1.638;2022-12-18T01:17:53;-1.70;99.90
19610;DHT22;9952;47.122;-1.638;2022-12-18T01:22:35;-1.60;99.90
19610;DHT22;9952;47.122;-1.638;2022-12-18T01:27:16;-1.60;99.90
19610;DHT22;9952;47.122;-1.638;2022-12-18T01:31:56;-1.60;99.90
19610;DHT22;9952;47.122;-1.638;2022-12-18T01:36:38;-1.60;99.90
19610;DHT22;9952;47.122;-1.638;2022-12-18T01:41:25;-1.60;99.90
19610;DHT22;9952;47.122;-1.638;2022-12-18T01:46:06;-1.60;99.90
19610;DHT22;9952;47.122;-1.638;2022-12-18T01:50:47;-1.60;99.90
19610;DHT22;9952;47.122;-1.638;2022-12-18T01:55:40;-1.50;99.90
19610;DHT22;9952;47.122;-1.638;2022-12-18T02:00:24;-1.50;99.90
19610;DHT22;9952;47.122;-1.638;2022-12-18T02:05:06;-1.50;99.90
19610;DHT22;9952;47.122;-1.638;2022-12-18T02:10:16;-1.40;99.90
19610;DHT22;9952;47.122;-1.638;2022-12-18T02:30:01;-1.20;99.90
19610;DHT22;9952;47.122;-1.638;2022-12-18T02:34:46;-1.20;99.90
19610;DHT22;9952;47.122;-1.638;2022-12-18T02:39:29;-1.20;99.90
19610;DHT22;9952;47.122;-1.638;2022-12-18T02:44:12;-1.10;99.90
19610;DHT22;9952;47.122;-1.638;2022-12-18T02:48:58;-1.10;99.90
19610;DHT22;9952;47.122;-1.638;2022-12-18T02:53:57;-1.00;99.90
19610;DHT22;9952;47.122;-1.638;2022-12-18T03:03:38;-1.00;99.90
19610;DHT22;9952;47.122;-1.638;2022-12-18T03:08:34;-0.90;99.90
19610;DHT22;9952;47.122;-1.638;2022-12-18T03:13:33;-0.90;99.90
19610;DHT22;9952;47.122;-1.638;2022-12-18T03:18:19;-0.90;99.90
19610;DHT22;9952;47.122;-1.638;2022-12-18T03:23:11;-0.90;99.90
19610;DHT22;9952;47.122;-1.638;2022-12-18T03:27:56;-0.80;99.90
19610;DHT22;9952;47.122;-1.638;2022-12-18T03:32:44;-0.80;99.90
19610;DHT22;9952;47.122;-1.638;2022-12-18T03:37:27;-0.80;99.90
19610;DHT22;9952;47.122;-1.638;2022-12-18T03:42:17;-0.80;99.90
19610;DHT22;9952;47.122;-1.638;2022-12-18T03:51:59;-0.80;99.90
19610;DHT22;9952;47.122;-1.638;2022-12-18T03:56:45;-0.70;99.90
19610;DHT22;9952;47.122;-1.638;2022-12-18T04:01:37;-0.70;99.90
19610;DHT22;9952;47.122;-1.638;2022-12-18T04:06:20;-0.70;99.90
19610;DHT22;9952;47.122;-1.638;2022-12-18T04:11:02;-0.60;99.90
19610;DHT22;9952;47.122;-1.638;2022-12-18T04:15:43;-0.60;99.90
19610;DHT22;9952;47.122;-1.638;2022-12-18T04:20:24;-0.50;99.90
19610;DHT22;9952;47.122;-1.638;2022-12-18T04:25:05;-0.50;99.90
19610;DHT22;9952;47.122;-1.638;2022-12-18T04:29:45;-0.50;99.90
19610;DHT22;9952;47.122;-1.638;2022-12-18T04:34:26;-0.40;99.90
19610;DHT22;9952;47.122;-1.638;2022-12-18T04:39:07;-0.30;99.90
19610;DHT22;9952;47.122;-1.638;2022-12-18T04:43:48;-0.30;99.90
19610;DHT22;9952;47.122;-1.638;2022-12-18T04:48:28;-0.20;99.90
19610;DHT22;9952;47.122;-1.638;2022-12-18T04:53:09;-0.10;99.90
19610;DHT22;9952;47.122;-1.638;2022-12-18T04:57:50;-0.10;99.90
19610;DHT22;9952;47.122;-1.638;2022-12-18T05:02:31;0.00;99.90
19610;DHT22;9952;47.122;-1.638;2022-12-18T05:07:12;0.00;99.90
19610;DHT22;9952;47.122;-1.638;2022-12-18T05:11:53;0.10;99.90
19610;DHT22;9952;47.122;-1.638;2022-12-18T05:16:34;0.20;99.90
19610;DHT22;9952;47.122;-1.638;2022-12-18T05:21:14;0.20;99.90
19610;DHT22;9952;47.122;-1.638;2022-12-18T05:25:56;0.30;99.90
19610;DHT22;9952;47.122;-1.638;2022-12-18T05:30:37;0.40;99.90
19610;DHT22;9952;47.122;-1.638;2022-12-18T05:35:18;0.50;99.90
19610;DHT22;9952;47.122;-1.638;2022-12-18T05:39:59;0.60;99.90
19610;DHT22;9952;47.122;-1.638;2022-12-18T05:44:40;0.70;99.90
19610;DHT22;9952;47.122;-1.638;2022-12-18T05:49:21;0.70;99.90
19610;DHT22;9952;47.122;-1.638;2022-12-18T05:54:01;0.80;99.90
19610;DHT22;9952;47.122;-1.638;2022-12-18T05:58:42;0.90;99.90
19610;DHT22;9952;47.122;-1.638;2022-12-18T06:03:23;0.90;99.90
19610;DHT22;9952;47.122;-1.638;2022-12-18T06:08:04;1.00;99.90
19610;DHT22;9952;47.122;-1.638;2022-12-18T06:12:45;1.10;99.90
19610;DHT22;9952;47.122;-1.638;2022-12-18T06:17:30;1.20;99.90
19610;DHT22;9952;47.122;-1.638;2022-12-18T06:22:11;1.30;99.90
19610;DHT22;9952;47.122;-1.638;2022-12-18T06:26:52;1.30;99.90
19610;DHT22;9952;47.122;-1.638;2022-12-18T06:31:32;1.40;99.90
19610;DHT22;9952;47.122;-1.638;2022-12-18T06:36:14;1.40;99.90
19610;DHT22;9952;47.122;-1.638;2022-12-18T06:40:55;1.60;99.90
19610;DHT22;9952;47.122;-1.638;2022-12-18T06:45:35;1.70;99.90
19610;DHT22;9952;47.122;-1.638;2022-12-18T06:50:16;1.70;99.90
19610;DHT22;9952;47.122;-1.638;2022-12-18T06:54:57;1.70;99.90
19610;DHT22;9952;47.122;-1.638;2022-12-18T06:59:38;1.80;99.90
19610;DHT22;9952;47.122;-1.638;2022-12-18T07:04:19;1.80;99.90
19610;DHT22;9952;47.122;-1.638;2022-12-18T07:08:59;1.80;99.90
19610;DHT22;9952;47.122;-1.638;2022-12-18T07:13:40;1.80;99.90
19610;DHT22;9952;47.122;-1.638;2022-12-18T07:18:21;1.90;99.90
19610;DHT22;9952;47.122;-1.638;2022-12-18T07:23:03;2.00;99.90
19610;DHT22;9952;47.122;-1.638;2022-12-18T07:27:45;2.10;99.90
19610;DHT22;9952;47.122;-1.638;2022-12-18T07:32:26;2.10;99.90
19610;DHT22;9952;47.122;-1.638;2022-12-18T07:37:07;2.10;99.90
19610;DHT22;9952;47.122;-1.638;2022-12-18T07:41:47;2.20;99.90
19610;DHT22;9952;47.122;-1.638;2022-12-18T07:46:48;2.30;99.90
19610;DHT22;9952;47.122;-1.638;2022-12-18T07:51:29;2.40;99.90
19610;DHT22;9952;47.122;-1.638;2022-12-18T07:56:11;2.30;99.90
19610;DHT22;9952;47.122;-1.638;2022-12-18T08:00:52;2.40;99.90
19610;DHT22;9952;47.122;-1.638;2022-12-18T08:05:33;2.40;99.90
19610;DHT22;9952;47.122;-1.638;2022-12-18T08:10:14;2.40;99.90
19610;DHT22;9952;47.122;-1.638;2022-12-18T08:14:55;2.40;99.90
19610;DHT22;9952;47.122;-1.638;2022-12-18T08:19:35;2.40;99.90
19610;DHT22;9952;47.122;-1.638;2022-12-18T08:24:16;2.40;99.90
19610;DHT22;9952;47.122;-1.638;2022-12-18T08:28:59;2.40;99.90
19610;DHT22;9952;47.122;-1.638;2022-12-18T08:33:41;2.60;99.90
19610;DHT22;9952;47.122;-1.638;2022-12-18T08:38:22;2.50;99.90
19610;DHT22;9952;47.122;-1.638;2022-12-18T08:43:03;2.60;99.90
19610;DHT22;9952;47.122;-1.638;2022-12-18T08:48:02;2.70;99.90
19610;DHT22;9952;47.122;-1.638;2022-12-18T08:52:43;2.70;99.90
19610;DHT22;9952;47.122;-1.638;2022-12-18T08:57:24;2.70;99.90
19610;DHT22;9952;47.122;-1.638;2022-12-18T09:02:05;2.70;99.90
19610;DHT22;9952;47.122;-1.638;2022-12-18T09:06:45;2.80;99.90
19610;DHT22;9952;47.122;-1.638;2022-12-18T09:11:28;2.80;99.90
19610;DHT22;9952;47.122;-1.638;2022-12-18T09:16:09;2.80;99.90
19610;DHT22;9952;47.122;-1.638;2022-12-18T09:20:50;2.90;99.90
19610;DHT22;9952;47.122;-1.638;2022-12-18T09:25:33;3.00;99.90
19610;DHT22;9952;47.122;-1.638;2022-12-18T09:30:16;3.00;99.90
19610;DHT22;9952;47.122;-1.638;2022-12-18T09:34:56;3.10;99.90
19610;DHT22;9952;47.122;-1.638;2022-12-18T09:39:38;3.10;99.90
19610;DHT22;9952;47.122;-1.638;2022-12-18T09:49:15;3.20;99.90
19610;DHT22;9952;47.122;-1.638;2022-12-18T09:54:04;3.30;99.90
19610;DHT22;9952;47.122;-1.638;2022-12-18T09:58:51;3.30;99.90
19610;DHT22;9952;47.122;-1.638;2022-12-18T10:03:35;3.40;99.90
19610;DHT22;9952;47.122;-1.638;2022-12-18T10:13:42;3.50;99.90
19610;DHT22;9952;47.122;-1.638;2022-12-18T10:28:33;3.80;99.90
19610;DHT22;9952;47.122;-1.638;2022-12-18T10:33:22;3.80;99.90
19610;DHT22;9952;47.122;-1.638;2022-12-18T10:42:44;4.00;99.90
19610;DHT22;9952;47.122;-1.638;2022-12-18T10:47:25;4.00;99.90
19610;DHT22;9952;47.122;-1.638;2022-12-18T10:52:23;4.10;99.90
19610;DHT22;9952;47.122;-1.638;2022-12-18T10:57:16;4.10;99.90
19610;DHT22;9952;47.122;-1.638;2022-12-18T11:01:58;4.20;99.90
19610;DHT22;9952;47.122;-1.638;2022-12-18T11:06:54;4.30;99.90
19610;DHT22;9952;47.122;-1.638;2022-12-18T11:11:37;4.30;99.90
19610;DHT22;9952;47.122;-1.638;2022-12-18T11:16:19;4.40;99.90
19610;DHT22;9952;47.122;-1.638;2022-12-18T11:21:11;4.40;99.90
19610;DHT22;9952;47.122;-1.638;2022-12-18T11:25:59;4.40;99.90
19610;DHT22;9952;47.122;-1.638;2022-12-18T11:30:42;4.40;99.90
19610;DHT22;9952;47.122;-1.638;2022-12-18T11:35:30;4.50;99.90
19610;DHT22;9952;47.122;-1.638;2022-12-18T11:40:22;4.50;99.90
19610;DHT22;9952;47.122;-1.638;2022-12-18T11:49:53;4.50;99.90
19610;DHT22;9952;47.122;-1.638;2022-12-18T11:54:35;4.60;99.90
19610;DHT22;9952;47.122;-1.638;2022-12-18T12:09:31;5.10;99.90
19610;DHT22;9952;47.122;-1.638;2022-12-18T12:19:32;5.20;99.90
19610;DHT22;9952;47.122;-1.638;2022-12-18T12:29:42;5.30;99.90
19610;DHT22;9952;47.122;-1.638;2022-12-18T12:35:14;5.30;99.90
19610;DHT22;9952;47.122;-1.638;2022-12-18T12:39:40;5.40;99.90
19610;DHT22;9952;47.122;-1.638;2022-12-18T12:49:37;5.40;99.90
19610;DHT22;9952;47.122;-1.638;2022-12-18T12:54:23;5.50;99.90
19610;DHT22;9952;47.122;-1.638;2022-12-18T12:59:25;5.50;99.90
19610;DHT22;9952;47.122;-1.638;2022-12-18T13:09:13;5.70;99.90
19610;DHT22;9952;47.122;-1.638;2022-12-18T13:13:56;5.70;99.90
19610;DHT22;9952;47.122;-1.638;2022-12-18T13:18:37;5.80;99.90
19610;DHT22;9952;47.122;-1.638;2022-12-18T13:23:29;5.80;99.90
19610;DHT22;9952;47.122;-1.638;2022-12-18T13:28:13;5.80;99.90
19610;DHT22;9952;47.122;-1.638;2022-12-18T13:37:54;5.90;99.90
19610;DHT22;9952;47.122;-1.638;2022-12-18T13:42:38;5.80;99.90
19610;DHT22;9952;47.122;-1.638;2022-12-18T13:47:38;5.90;99.90
19610;DHT22;9952;47.122;-1.638;2022-12-18T13:52:22;5.90;99.90
19610;DHT22;9952;47.122;-1.638;2022-12-18T13:57:11;5.90;99.90
19610;DHT22;9952;47.122;-1.638;2022-12-18T14:02:16;6.00;99.90
19610;DHT22;9952;47.122;-1.638;2022-12-18T14:07:14;6.00;99.90
19610;DHT22;9952;47.122;-1.638;2022-12-18T14:11:56;6.20;99.90
19610;DHT22;9952;47.122;-1.638;2022-12-18T14:16:59;6.20;99.90
19610;DHT22;9952;47.122;-1.638;2022-12-18T14:21:40;6.20;99.90
19610;DHT22;9952;47.122;-1.638;2022-12-18T14:26:28;6.40;99.90
19610;DHT22;9952;47.122;-1.638;2022-12-18T14:31:18;6.50;99.90
19610;DHT22;9952;47.122;-1.638;2022-12-18T14:36:04;6.50;99.90
19610;DHT22;9952;47.122;-1.638;2022-12-18T14:40:45;6.60;99.90
19610;DHT22;9952;47.122;-1.638;2022-12-18T14:45:37;6.60;99.90
19610;DHT22;9952;47.122;-1.638;2022-12-18T14:50:18;6.70;99.90
19610;DHT22;9952;47.122;-1.638;2022-12-18T14:54:58;6.80;99.90
19610;DHT22;9952;47.122;-1.638;2022-12-18T14:59:39;6.70;99.90
19610;DHT22;9952;47.122;-1.638;2022-12-18T15:04:40;6.80;99.90
19610;DHT22;9952;47.122;-1.638;2022-12-18T15:09:23;6.80;99.90
19610;DHT22;9952;47.122;-1.638;2022-12-18T15:19:16;6.90;99.90
19610;DHT22;9952;47.122;-1.638;2022-12-18T15:23:58;7.00;99.90
19610;DHT22;9952;47.122;-1.638;2022-12-18T15:28:56;7.10;99.90
19610;DHT22;9952;47.122;-1.638;2022-12-18T15:33:59;7.10;99.90
19610;DHT22;9952;47.122;-1.638;2022-12-18T15:38:41;7.10;99.90
19610;DHT22;9952;47.122;-1.638;2022-12-18T15:43:24;7.20;99.90
19610;DHT22;9952;47.122;-1.638;2022-12-18T15:48:22;7.30;99.90
19610;DHT22;9952;47.122;-1.638;2022-12-18T15:53:08;7.40;99.90
19610;DHT22;9952;47.122;-1.638;2022-12-18T15:57:51;7.40;99.90
19610;DHT22;9952;47.122;-1.638;2022-12-18T16:02:34;7.40;99.90
19610;DHT22;9952;47.122;-1.638;2022-12-18T16:07:15;7.50;99.90
19610;DHT22;9952;47.122;-1.638;2022-12-18T16:11:56;7.60;99.90
19610;DHT22;9952;47.122;-1.638;2022-12-18T16:16:39;7.70;99.90
19610;DHT22;9952;47.122;-1.638;2022-12-18T16:21:22;7.80;99.90
19610;DHT22;9952;47.122;-1.638;2022-12-18T16:26:02;7.90;99.90
19610;DHT22;9952;47.122;-1.638;2022-12-18T16:30:45;7.90;99.90
19610;DHT22;9952;47.122;-1.638;2022-12-18T16:35:26;8.00;99.90
19610;DHT22;9952;47.122;-1.638;2022-12-18T16:40:09;8.10;99.90
19610;DHT22;9952;47.122;-1.638;2022-12-18T16:44:51;8.20;99.90
19610;DHT22;9952;47.122;-1.638;2022-12-18T16:49:31;8.30;99.90
19610;DHT22;9952;47.122;-1.638;2022-12-18T16:54:13;8.40;99.90
19610;DHT22;9952;47.122;-1.638;2022-12-18T16:58:56;8.50;99.90
19610;DHT22;9952;47.122;-1.638;2022-12-18T17:03:37;8.60;99.90
19610;DHT22;9952;47.122;-1.638;2022-12-18T17:08:17;8.70;99.90
19610;DHT22;9952;47.122;-1.638;2022-12-18T17:12:58;8.70;99.90
19610;DHT22;9952;47.122;-1.638;2022-12-18T17:17:40;8.80;99.90
19610;DHT22;9952;47.122;-1.638;2022-12-18T17:22:22;8.90;99.90
19610;DHT22;9952;47.122;-1.638;2022-12-18T17:27:03;8.90;99.90
19610;DHT22;9952;47.122;-1.638;2022-12-18T17:31:44;9.00;99.90
19610;DHT22;9952;47.122;-1.638;2022-12-18T17:36:25;9.00;99.90
19610;DHT22;9952;47.122;-1.638;2022-12-18T17:41:09;9.10;99.90
19610;DHT22;9952;47.122;-1.638;2022-12-18T17:45:51;9.10;99.90
19610;DHT22;9952;47.122;-1.638;2022-12-18T17:50:33;9.10;99.90
19610;DHT22;9952;47.122;-1.638;2022-12-18T17:55:14;9.20;99.90
19610;DHT22;9952;47.122;-1.638;2022-12-18T17:59:54;9.30;99.90
19610;DHT22;9952;47.122;-1.638;2022-12-18T18:04:36;9.30;99.90
19610;DHT22;9952;47.122;-1.638;2022-12-18T18:09:17;9.30;99.90
19610;DHT22;9952;47.122;-1.638;2022-12-18T18:13:58;9.30;99.90
19610;DHT22;9952;47.122;-1.638;2022-12-18T18:18:42;9.40;99.90
19610;DHT22;9952;47.122;-1.638;2022-12-18T18:23:23;9.40;99.90
19610;DHT22;9952;47.122;-1.638;2022-12-18T18:28:04;9.50;99.90
19610;DHT22;9952;47.122;-1.638;2022-12-18T18:32:44;9.50;99.90
19610;DHT22;9952;47.122;-1.638;2022-12-18T18:37:25;9.50;99.90
19610;DHT22;9952;47.122;-1.638;2022-12-18T18:42:06;9.60;99.90
19610;DHT22;9952;47.122;-1.638;2022-12-18T18:46:47;9.50;99.90
19610;DHT22;9952;47.122;-1.638;2022-12-18T18:51:29;9.50;99.90
19610;DHT22;9952;47.122;-1.638;2022-12-18T18:56:11;9.50;99.90
19610;DHT22;9952;47.122;-1.638;2022-12-18T19:00:57;9.50;99.90
19610;DHT22;9952;47.122;-1.638;2022-12-18T19:05:38;9.50;99.90
19610;DHT22;9952;47.122;-1.638;2022-12-18T19:10:18;9.50;99.90
19610;DHT22;9952;47.122;-1.638;2022-12-18T19:14:59;9.50;99.90
19610;DHT22;9952;47.122;-1.638;2022-12-18T19:19:40;9.40;99.90
19610;DHT22;9952;47.122;-1.638;2022-12-18T19:24:21;9.40;99.90
19610;DHT22;9952;47.122;-1.638;2022-12-18T19:29:04;9.40;99.90
19610;DHT22;9952;47.122;-1.638;2022-12-18T19:33:46;9.40;99.90
19610;DHT22;9952;47.122;-1.638;2022-12-18T19:38:27;9.40;99.90
19610;DHT22;9952;47.122;-1.638;2022-12-18T19:43:08;9.40;99.90
19610;DHT22;9952;47.122;-1.638;2022-12-18T19:47:49;9.50;99.90
19610;DHT22;9952;47.122;-1.638;2022-12-18T19:52:30;9.60;99.90
19610;DHT22;9952;47.122;-1.638;2022-12-18T19:57:11;9.70;99.90
19610;DHT22;9952;47.122;-1.638;2022-12-18T20:01:52;9.70;99.90
19610;DHT22;9952;47.122;-1.638;2022-12-18T20:06:45;9.80;99.90
19610;DHT22;9952;47.122;-1.638;2022-12-18T20:11:28;9.90;99.90
19610;DHT22;9952;47.122;-1.638;2022-12-18T20:16:09;9.90;99.90
19610;DHT22;9952;47.122;-1.638;2022-12-18T20:20:50;9.90;99.90
19610;DHT22;9952;47.122;-1.638;2022-12-18T20:25:32;9.90;99.90
19610;DHT22;9952;47.122;-1.638;2022-12-18T20:30:12;10.00;99.90
19610;DHT22;9952;47.122;-1.638;2022-12-18T20:34:53;10.00;99.90
19610;DHT22;9952;47.122;-1.638;2022-12-18T20:39:34;10.00;99.90
19610;DHT22;9952;47.122;-1.638;2022-12-18T20:44:16;10.00;99.90
19610;DHT22;9952;47.122;-1.638;2022-12-18T20:48:57;10.10;99.90
19610;DHT22;9952;47.122;-1.638;2022-12-18T20:53:39;10.10;99.90
19610;DHT22;9952;47.122;-1.638;2022-12-18T20:58:20;10.10;99.90
19610;DHT22;9952;47.122;-1.638;2022-12-18T21:03:01;10.20;99.90
19610;DHT22;9952;47.122;-1.638;2022-12-18T21:07:41;10.20;99.90
19610;DHT22;9952;47.122;-1.638;2022-12-18T21:12:22;10.20;99.90
19610;DHT22;9952;47.122;-1.638;2022-12-18T21:17:18;10.20;99.90
19610;DHT22;9952;47.122;-1.638;2022-12-18T21:21:59;10.20;99.90
19610;DHT22;9952;47.122;-1.638;2022-12-18T21:26:40;10.10;99.90
19610;DHT22;9952;47.122;-1.638;2022-12-18T21:31:21;10.20;99.90
19610;DHT22;9952;47.122;-1.638;2022-12-18T21:36:06;10.10;99.90
19610;DHT22;9952;47.122;-1.638;2022-12-18T21:40:47;10.10;99.90
19610;DHT22;9952;47.122;-1.638;2022-12-18T21:45:28;10.10;99.90
19610;DHT22;9952;47.122;-1.638;2022-12-18T21:50:08;10.10;99.90
19610;DHT22;9952;47.122;-1.638;2022-12-18T21:54:49;10.20;99.90
19610;DHT22;9952;47.122;-1.638;2022-12-18T21:59:35;10.20;99.90
19610;DHT22;9952;47.122;-1.638;2022-12-18T22:04:17;10.20;99.90
19610;DHT22;9952;47.122;-1.638;2022-12-18T22:08:57;10.20;99.90
19610;DHT22;9952;47.122;-1.638;2022-12-18T22:13:38;10.20;99.90
19610;DHT22;9952;47.122;-1.638;2022-12-18T22:18:19;10.10;99.90
19610;DHT22;9952;47.122;-1.638;2022-12-18T22:23:00;10.20;99.90
19610;DHT22;9952;47.122;-1.638;2022-12-18T22:27:41;10.30;99.90
19610;DHT22;9952;47.122;-1.638;2022-12-18T22:32:22;10.20;99.90
19610;DHT22;9952;47.122;-1.638;2022-12-18T22:37:03;10.20;99.90
19610;DHT22;9952;47.122;-1.638;2022-12-18T22:41:44;10.20;99.90
19610;DHT22;9952;47.122;-1.638;2022-12-18T22:46:25;10.20;99.90
19610;DHT22;9952;47.122;-1.638;2022-12-18T22:51:07;10.10;99.90
19610;DHT22;9952;47.122;-1.638;2022-12-18T22:55:48;10.20;99.90
19610;DHT22;9952;47.122;-1.638;2022-12-18T23:00:29;10.10;99.90
19610;DHT22;9952;47.122;-1.638;2022-12-18T23:05:10;10.10;99.90
19610;DHT22;9952;47.122;-1.638;2022-12-18T23:09:50;10.10;99.90
19610;DHT22;9952;47.122;-1.638;2022-12-18T23:14:31;10.20;99.90
19610;DHT22;9952;47.122;-1.638;2022-12-18T23:19:12;10.20;99.90
19610;DHT22;9952;47.122;-1.638;2022-12-18T23:23:53;10.30;99.90
19610;DHT22;9952;47.122;-1.638;2022-12-18T23:28:35;10.20;99.90
19610;DHT22;9952;47.122;-1.638;2022-12-18T23:33:16;10.20;99.90
19610;DHT22;9952;47.122;-1.638;2022-12-18T23:37:56;10.20;99.90
19610;DHT22;9952;47.122;-1.638;2022-12-18T23:42:37;10.20;99.90
19610;DHT22;9952;47.122;-1.638;2022-12-18T23:47:18;10.20;99.90
19610;DHT22;9952;47.122;-1.638;2022-12-18T23:51:59;10.20;99.90
19610;DHT22;9952;47.122;-1.638;2022-12-18T23:56:39;10.20;99.90
